Time;durP1;ratioP1;P1;durP2;ratioP2;P2;SDS_P1;SDS_P2;PMS_P1;PMS_P2;Temp;Humidity;BMP_temperature;BMP_pressure;BME280_temperature;BME280_humidity;BME280_pressure;Samples;Min_cycle;Max_cycle;Signal;HPM_P1;HPM_P2
2022/07/22 00:01:36;;;;;;;;;25.00;24.75;;;;;20.76;74.16;101803.41;5094906;27;49982;-72
2022/07/22 00:04:02;;;;;;;;;23.00;23.00;;;;;20.68;74.15;101794.53;5094560;27;50833;-72
2022/07/22 00:06:28;;;;;;;;;26.75;25.00;;;;;20.69;74.31;101797.19;5094789;27;49800;-71
2022/07/22 00:08:54;;;;;;;;;21.50;21.00;;;;;20.71;74.24;101803.41;5094813;27;49778;-71
2022/07/22 00:11:19;;;;;;;;;25.25;24.00;;;;;20.69;74.32;101807.88;5094673;27;49678;-72
2022/07/22 00:13:45;;;;;;;;;26.25;23.25;;;;;20.65;74.77;101808.75;5094160;27;50092;-72
2022/07/22 00:16:11;;;;;;;;;23.25;21.75;;;;;20.51;74.71;101798.16;5094421;27;49911;-73
2022/07/22 00:18:36;;;;;;;;;23.75;23.00;;;;;20.48;74.87;101795.50;5094429;27;49734;-71
2022/07/22 00:21:02;;;;;;;;;24.75;23.75;;;;;20.57;74.59;101803.47;5094760;27;49729;-71
2022/07/22 00:23:28;;;;;;;;;23.00;21.25;;;;;20.51;74.67;101791.94;5094291;27;51101;-73
2022/07/22 00:25:53;;;;;;;;;23.75;22.25;;;;;20.53;74.91;101799.03;5094405;27;49800;-71
2022/07/22 00:28:19;;;;;;;;;25.50;21.75;;;;;20.53;74.61;101806.16;5092981;27;49670;-72
2022/07/22 00:30:44;;;;;;;;;23.00;21.50;;;;;20.35;75.04;101777.72;5094498;27;49897;-71
2022/07/22 00:33:09;;;;;;;;;20.75;19.50;;;;;20.37;75.02;101778.63;5094012;27;50623;-72
2022/07/22 00:35:35;;;;;;;;;25.00;18.00;;;;;20.36;75.09;101775.94;5094348;27;49758;-73
2022/07/22 00:38:00;;;;;;;;;21.75;21.75;;;;;20.38;75.33;101791.06;5094258;27;49915;-73
2022/07/22 00:40:25;;;;;;;;;14.75;13.25;;;;;20.28;75.91;101797.31;5094487;27;50392;-73
2022/07/22 00:42:52;;;;;;;;;23.75;22.00;;;;;19.98;76.44;101752.97;5093938;27;49757;-72
2022/07/22 00:45:18;;;;;;;;;19.75;18.50;;;;;20.01;76.14;101748.50;5094071;27;49658;-72
2022/07/22 00:47:43;;;;;;;;;27.50;23.75;;;;;20.20;76.11;101780.44;5094115;27;49813;-71
2022/07/22 00:50:10;;;;;;;;;22.25;20.25;;;;;20.14;76.24;101776.00;5094412;27;49728;-72
2022/07/22 00:52:35;;;;;;;;;21.50;20.75;;;;;20.15;76.02;101777.78;5094032;27;50328;-70
2022/07/22 00:55:03;;;;;;;;;24.00;21.75;;;;;20.13;75.89;101779.56;5093813;27;49679;-72
2022/07/22 00:57:29;;;;;;;;;20.50;19.25;;;;;19.95;76.34;101752.94;5093827;27;49729;-71
2022/07/22 00:59:54;;;;;;;;;18.50;17.75;;;;;19.81;76.76;101745.00;5092878;27;49892;-71
2022/07/22 01:02:19;;;;;;;;;18.75;17.75;;;;;19.87;76.97;101771.63;5093809;27;49925;-72
2022/07/22 01:04:45;;;;;;;;;19.50;17.25;;;;;19.86;76.51;101753.84;5093981;27;49809;-71
2022/07/22 01:07:10;;;;;;;;;24.25;23.00;;;;;19.90;76.74;101771.63;5094107;27;49678;-70
2022/07/22 01:09:36;;;;;;;;;17.25;16.50;;;;;19.86;76.76;101760.97;5095021;27;49923;-71
2022/07/22 01:12:02;;;;;;;;;20.25;20.25;;;;;19.62;77.07;101737.91;5097242;27;49685;-72
2022/07/22 01:14:28;;;;;;;;;22.00;19.50;;;;;19.66;77.04;101745.88;5097455;27;49812;-72
2022/07/22 01:16:53;;;;;;;;;23.75;22.00;;;;;19.83;76.82;101759.19;5097365;27;49703;-70
2022/07/22 01:19:18;;;;;;;;;23.50;21.25;;;;;19.81;76.83;101773.41;5097699;27;49840;-71
2022/07/22 01:21:44;;;;;;;;;23.75;23.25;;;;;19.79;76.97;101764.56;5096005;27;51339;-71
2022/07/22 01:24:09;;;;;;;;;18.25;16.00;;;;;19.82;76.61;101761.88;5097414;27;49897;-73
2022/07/22 01:26:34;;;;;;;;;25.25;22.75;;;;;19.78;76.80;101762.75;5097425;27;49630;-71
2022/07/22 01:29:00;;;;;;;;;19.25;18.75;;;;;19.74;76.77;101764.53;5097074;27;49701;-70
2022/07/22 01:31:26;;;;;;;;;18.75;18.50;;;;;19.58;76.80;101750.34;5097112;27;49609;-71
2022/07/22 01:33:51;;;;;;;;;22.50;20.00;;;;;19.61;77.07;101753.00;5097296;27;49972;-70
2022/07/22 01:36:16;;;;;;;;;24.50;22.00;;;;;19.68;76.99;101759.19;5096989;27;49947;-72
2022/07/22 01:38:42;;;;;;;;;25.25;20.50;;;;;19.58;77.05;101746.78;5097265;27;49789;-72
2022/07/22 01:41:07;;;;;;;;;21.75;19.00;;;;;19.68;76.97;101761.88;5095637;27;51388;-70
2022/07/22 01:43:33;;;;;;;;;23.25;22.00;;;;;19.65;77.19;101764.53;5096543;27;49451;-70
2022/07/22 01:45:58;;;;;;;;;20.50;19.00;;;;;19.37;77.32;101729.88;5096993;27;49574;-71
2022/07/22 01:48:24;;;;;;;;;23.00;21.75;;;;;19.59;77.25;101761.88;5097097;27;49785;-70
2022/07/22 01:50:50;;;;;;;;;18.50;17.00;;;;;19.59;76.99;101768.13;5096875;27;49890;-71
2022/07/22 01:53:16;;;;;;;;;17.75;17.75;;;;;19.50;77.06;101751.22;5096954;27;49824;-71
2022/07/22 01:55:42;;;;;;;;;17.75;16.00;;;;;19.50;76.98;101757.44;5096634;27;49769;-72
2022/07/22 01:58:07;;;;;;;;;19.50;18.50;;;;;19.45;77.19;101746.75;5095316;27;49940;-71
2022/07/22 02:00:33;;;;;;;;;20.00;17.00;;;;;19.38;77.25;101729.00;5096625;27;50617;-71
2022/07/22 02:02:59;;;;;;;;;19.75;18.25;;;;;19.43;77.01;101752.97;5096717;27;49553;-72
2022/07/22 02:05:24;;;;;;;;;21.75;20.25;;;;;19.42;77.49;101748.53;5096802;27;49741;-72
2022/07/22 02:07:50;;;;;;;;;18.50;17.00;;;;;19.21;77.34;101717.50;5096827;27;49696;-71
2022/07/22 02:10:16;;;;;;;;;26.75;21.25;;;;;19.47;76.70;101749.41;5096236;27;49635;-71
2022/07/22 02:12:41;;;;;;;;;17.50;14.25;;;;;19.52;76.61;101752.09;5096189;27;49864;-71
2022/07/22 02:15:08;;;;;;;;;20.00;19.00;;;;;19.23;77.05;101718.38;5096490;27;49474;-72
2022/07/22 02:17:34;;;;;;;;;17.75;16.75;;;;;19.35;77.24;101744.09;5096626;27;49850;-71
2022/07/22 02:20:00;;;;;;;;;18.75;16.75;;;;;19.13;77.14;101714.81;5095938;27;50782;-70
2022/07/22 02:22:25;;;;;;;;;18.75;17.00;;;;;19.40;77.01;101753.88;5096498;27;49840;-71
2022/07/22 02:24:50;;;;;;;;;18.00;17.00;;;;;18.78;77.07;101656.22;5096458;27;49814;-71
2022/07/22 02:27:16;;;;;;;;;23.25;21.25;;;;;19.25;77.26;101737.88;5096261;27;49653;-72
2022/07/22 02:29:41;;;;;;;;;23.25;21.00;;;;;19.24;77.29;101741.44;5095939;27;53673;-71
2022/07/22 02:32:06;;;;;;;;;20.75;18.25;;;;;19.13;77.30;101741.44;5096361;27;49758;-72
2022/07/22 02:34:32;;;;;;;;;17.50;17.50;;;;;19.22;77.29;101753.88;5094901;27;49680;-71
2022/07/22 02:36:57;;;;;;;;;22.00;21.25;;;;;19.23;77.81;101754.75;5096322;27;49860;-71
2022/07/22 02:39:22;;;;;;;;;17.00;15.00;;;;;19.21;77.71;101753.88;5096055;27;50672;-72
2022/07/22 02:41:48;;;;;;;;;19.50;19.50;;;;;19.19;78.04;101759.16;5095997;27;49653;-72
2022/07/22 02:44:13;;;;;;;;;21.00;19.00;;;;;19.15;77.93;101757.41;5095917;27;49660;-71
2022/07/22 02:46:38;;;;;;;;;19.00;18.00;;;;;18.98;78.13;101732.53;5096279;27;49575;-73
2022/07/22 02:49:05;;;;;;;;;20.50;19.25;;;;;19.02;78.36;101753.84;5095873;27;49689;-73
2022/07/22 02:51:30;;;;;;;;;16.50;16.25;;;;;19.05;78.47;101755.59;5095966;27;49566;-72
2022/07/22 02:53:56;;;;;;;;;20.00;19.00;;;;;19.02;78.33;101753.84;5095838;27;49615;-72
2022/07/22 02:56:21;;;;;;;;;21.50;19.00;;;;;18.87;78.49;101727.19;5095810;27;49759;-80
2022/07/22 02:58:47;;;;;;;;;18.75;18.00;;;;;18.83;77.96;101707.69;5095427;27;50814;-81
2022/07/22 03:01:13;;;;;;;;;15.50;15.00;;;;;19.08;77.57;101739.63;5095887;27;50005;-71
2022/07/22 03:03:39;;;;;;;;;18.00;17.00;;;;;18.95;77.80;101725.44;5095963;27;49714;-71
2022/07/22 03:06:04;;;;;;;;;20.50;16.75;;;;;19.03;77.75;101741.41;5095979;27;49758;-71
2022/07/22 03:08:29;;;;;;;;;23.00;21.75;;;;;18.94;78.77;101733.41;5095591;27;50239;-71
2022/07/22 03:10:55;;;;;;;;;17.75;16.75;;;;;18.95;78.24;101735.19;5095421;27;49594;-71
2022/07/22 03:13:20;;;;;;;;;13.75;13.25;;;;;18.64;78.51;101699.63;5095463;27;49764;-71
2022/07/22 03:15:45;;;;;;;;;22.75;21.00;;;;;18.83;78.64;101736.94;5095829;27;49734;-71
2022/07/22 03:18:11;;;;;;;;;17.00;16.25;;;;;18.72;78.97;101733.38;5095330;27;50451;-73
2022/07/22 03:20:36;;;;;;;;;22.75;20.25;;;;;18.62;79.13;101726.19;5095515;27;49711;-72
2022/07/22 03:23:02;;;;;;;;;18.50;18.00;;;;;18.62;79.71;101741.25;5095717;27;49591;-72
2022/07/22 03:25:28;;;;;;;;;20.50;18.75;;;;;18.59;79.38;101732.41;5095542;27;49832;-72
2022/07/22 03:27:53;;;;;;;;;15.75;14.75;;;;;18.59;79.52;101732.41;5093674;27;52367;-72
2022/07/22 03:30:19;;;;;;;;;15.25;15.25;;;;;18.44;79.80;101718.19;5095358;27;49619;-71
2022/07/22 03:32:46;;;;;;;;;17.50;14.25;;;;;18.57;79.42;101744.81;5094783;27;49759;-72
2022/07/22 03:35:12;;;;;;;;;15.50;15.50;;;;;18.40;79.53;101717.25;5095381;27;49616;-71
2022/07/22 03:37:38;;;;;;;;;16.75;16.25;;;;;18.35;79.82;101726.13;5093671;27;52631;-71
2022/07/22 03:40:04;;;;;;;;;21.50;19.00;;;;;18.34;79.99;101727.00;5095342;27;49960;-73
2022/07/22 03:42:29;;;;;;;;;21.50;19.25;;;;;18.52;79.52;101746.53;5094936;27;49909;-72
2022/07/22 03:44:54;;;;;;;;;24.25;21.00;;;;;18.48;79.78;101749.19;5095305;27;49561;-70
2022/07/22 03:47:21;;;;;;;;;20.50;19.00;;;;;18.46;79.70;101753.63;5095001;27;49769;-72
2022/07/22 03:49:46;;;;;;;;;18.25;15.00;;;;;18.28;79.06;101730.50;5094986;27;49873;-72
2022/07/22 03:52:12;;;;;;;;;17.50;17.50;;;;;18.45;79.68;101749.19;5094958;27;49605;-72
2022/07/22 03:54:38;;;;;;;;;17.75;15.25;;;;;18.41;79.32;101734.09;5095109;27;49672;-72
2022/07/22 03:57:03;;;;;;;;;17.75;17.75;;;;;18.40;79.74;101750.94;5094286;27;50607;-71
2022/07/22 03:59:28;;;;;;;;;16.50;14.00;;;;;18.09;80.16;101702.97;5094933;27;49678;-72
2022/07/22 04:01:54;;;;;;;;;19.50;19.50;;;;;18.33;80.16;101754.44;5094791;27;49731;-70
2022/07/22 04:04:19;;;;;;;;;19.50;16.50;;;;;18.24;80.02;101729.63;5095197;27;49667;-73
2022/07/22 04:06:45;;;;;;;;;18.50;17.50;;;;;18.28;79.91;101733.16;5094632;27;49771;-73
2022/07/22 04:09:10;;;;;;;;;19.50;16.00;;;;;18.26;79.64;101741.13;5094632;27;49683;-71
2022/07/22 04:11:36;;;;;;;;;16.25;16.25;;;;;18.28;80.06;101751.78;5094561;27;49583;-71
2022/07/22 04:14:01;;;;;;;;;15.50;12.00;;;;;18.27;80.04;101755.31;5094661;27;49689;-73
2022/07/22 04:16:26;;;;;;;;;20.50;17.25;;;;;18.27;80.10;101742.91;5094302;27;49753;-71
2022/07/22 04:18:52;;;;;;;;;17.00;14.50;;;;;18.10;80.27;101723.34;5094677;27;49660;-73
2022/07/22 04:21:17;;;;;;;;;20.75;17.25;;;;;18.15;80.11;101718.94;5093268;27;49684;-71
2022/07/22 04:23:42;;;;;;;;;21.75;17.75;;;;;18.23;80.25;101737.56;5094782;27;49781;-70
2022/07/22 04:26:08;;;;;;;;;18.50;18.50;;;;;18.21;80.27;101734.00;5094284;27;50668;-71
2022/07/22 04:28:34;;;;;;;;;18.00;17.50;;;;;18.13;80.12;101715.38;5094184;27;50449;-70
2022/07/22 04:31:01;;;;;;;;;18.75;18.00;;;;;18.09;79.96;101705.63;5094591;27;49701;-72
2022/07/22 04:33:26;;;;;;;;;19.50;17.00;;;;;18.23;80.17;101726.94;5094488;27;49670;-71
2022/07/22 04:35:51;;;;;;;;;18.75;17.50;;;;;18.21;79.61;101718.06;5094008;27;57106;-73
2022/07/22 04:38:17;;;;;;;;;19.00;17.25;;;;;18.05;80.15;101695.88;5094078;27;49797;-70
2022/07/22 04:40:43;;;;;;;;;21.75;18.25;;;;;18.18;80.11;101729.56;5094089;27;49849;-71
2022/07/22 04:43:08;;;;;;;;;19.75;19.00;;;;;18.18;80.55;101728.69;5093950;27;49855;-71
2022/07/22 04:45:34;;;;;;;;;23.50;21.00;;;;;18.16;80.23;101715.41;5093169;27;50551;-71
2022/07/22 04:47:59;;;;;;;;;20.00;17.50;;;;;18.00;79.96;101682.53;5093966;27;49840;-70
2022/07/22 04:50:24;;;;;;;;;21.50;18.75;;;;;18.24;79.95;101723.41;5094227;27;50014;-71
2022/07/22 04:52:50;;;;;;;;;20.00;16.75;;;;;18.21;80.05;101726.91;5094266;27;49679;-71
2022/07/22 04:55:15;;;;;;;;;24.00;18.50;;;;;18.16;79.91;101712.75;5093748;27;56641;-71
2022/07/22 04:57:40;;;;;;;;;21.00;18.75;;;;;18.27;79.88;101712.78;5093620;27;49830;-71
2022/07/22 05:00:06;;;;;;;;;18.75;16.25;;;;;18.27;79.72;101716.34;5093941;27;51392;-70
2022/07/22 05:02:32;;;;;;;;;22.25;18.50;;;;;18.34;79.36;101714.59;5094224;27;50019;-70
2022/07/22 05:04:58;;;;;;;;;18.50;17.00;;;;;18.15;79.37;101679.09;5093753;27;50748;-70
2022/07/22 05:07:23;;;;;;;;;19.25;18.75;;;;;18.40;78.96;101716.38;5093863;27;49788;-70
2022/07/22 05:09:49;;;;;;;;;21.25;18.50;;;;;18.44;78.84;101724.38;5093869;27;50144;-71
2022/07/22 05:12:14;;;;;;;;;21.50;21.50;;;;;18.47;78.74;101713.75;5093769;27;49761;-70
2022/07/22 05:14:40;;;;;;;;;17.50;17.25;;;;;18.59;78.30;101710.22;5093731;27;50436;-72
2022/07/22 05:17:12;;;;;;;;;18.50;17.00;;;;;18.62;78.28;101715.56;5093722;27;49632;-70
2022/07/22 05:19:39;;;;;;;;;22.00;18.50;;;;;18.44;77.67;101662.34;5093936;27;49749;-71
2022/07/22 05:22:06;;;;;;;;;22.75;19.50;;;;;18.70;77.28;101716.50;5093848;27;49595;-70
2022/07/22 05:24:31;;;;;;;;;21.25;19.50;;;;;18.53;77.58;101687.19;5093365;27;49792;-70
2022/07/22 05:26:57;;;;;;;;;19.25;18.50;;;;;18.75;77.19;101700.56;5093422;27;49734;-70
2022/07/22 05:29:23;;;;;;;;;17.75;16.00;;;;;18.79;77.00;101703.22;5093764;27;49583;-70
2022/07/22 05:31:48;;;;;;;;;18.00;17.25;;;;;18.57;76.97;101658.81;5093804;27;49947;-72
2022/07/22 05:34:13;;;;;;;;;20.75;18.50;;;;;18.74;77.27;101704.13;5092216;27;51572;-71
2022/07/22 05:36:39;;;;;;;;;21.00;19.25;;;;;18.41;76.99;101622.44;5093210;27;49736;-70
2022/07/22 05:39:04;;;;;;;;;23.75;17.50;;;;;18.87;76.78;101698.81;5093566;27;49512;-70
2022/07/22 05:41:29;;;;;;;;;20.50;20.50;;;;;18.87;76.78;101703.25;5092532;27;50047;-71
2022/07/22 05:43:55;;;;;;;;;20.50;16.50;;;;;18.76;76.25;101681.94;5092950;27;50409;-69
2022/07/22 05:46:20;;;;;;;;;18.50;16.75;;;;;18.69;76.47;101660.66;5093672;27;49749;-82
2022/07/22 05:48:45;;;;;;;;;26.25;21.25;;;;;19.00;76.43;101706.78;5094547;27;49711;-71
2022/07/22 05:51:12;;;;;;;;;17.75;17.75;;;;;18.89;75.96;101696.16;5093597;27;49841;-71
2022/07/22 05:53:38;;;;;;;;;15.00;14.75;;;;;19.02;76.10;101705.94;5097917;27;50495;-71
2022/07/22 05:56:04;;;;;;;;;18.25;17.25;;;;;19.03;75.83;101696.19;5101048;27;49809;-72
2022/07/22 05:58:30;;;;;;;;;18.25;15.75;;;;;18.94;76.20;101682.88;5110727;27;49803;-72
2022/07/22 06:00:55;;;;;;;;;20.75;18.25;;;;;19.00;76.46;101686.41;5098361;27;49519;-71
2022/07/22 06:03:21;;;;;;;;;18.25;17.00;;;;;18.98;76.28;101682.84;5096599;27;50473;-72
2022/07/22 06:05:46;;;;;;;;;21.75;19.00;;;;;18.85;75.99;101650.03;5096767;27;49704;-72
2022/07/22 06:08:11;;;;;;;;;17.00;16.50;;;;;19.18;75.74;101685.53;5096861;27;49609;-73
2022/07/22 06:10:37;;;;;;;;;25.00;21.00;;;;;19.09;75.26;101665.13;5096697;27;49625;-76
2022/07/22 06:13:02;;;;;;;;;22.50;21.25;;;;;19.21;75.24;101697.97;5097519;27;50444;-71
2022/07/22 06:15:28;;;;;;;;;20.25;19.00;;;;;19.26;75.28;101696.19;5096248;27;49730;-72
2022/07/22 06:17:53;;;;;;;;;18.50;17.00;;;;;19.26;74.99;101682.88;5096508;27;49759;-74
2022/07/22 06:20:18;;;;;;;;;22.00;20.25;;;;;19.02;75.04;101650.06;5109082;27;49754;-78
2022/07/22 06:22:44;;;;;;;;;24.50;22.50;;;;;19.37;74.75;101689.94;5096106;27;50674;-81
2022/07/22 06:25:10;;;;;;;;;26.25;23.00;;;;;19.31;74.82;101679.31;5094447;27;49805;-70
2022/07/22 06:27:35;;;;;;;;;19.50;17.00;;;;;19.50;74.63;101682.88;5099640;27;49705;-71
2022/07/22 06:30:01;;;;;;;;;20.50;18.50;;;;;19.62;74.53;101684.66;5098671;27;49771;-70
2022/07/22 06:32:26;;;;;;;;;23.50;19.50;;;;;19.63;73.45;101655.34;5096243;27;50575;-72
2022/07/22 06:34:52;;;;;;;;;19.00;16.25;;;;;19.96;73.11;101688.97;5095889;27;49794;-70
2022/07/22 06:37:17;;;;;;;;;22.75;20.00;;;;;20.03;72.11;101684.53;5094866;27;49660;-74
2022/07/22 06:39:42;;;;;;;;;19.25;17.00;;;;;20.06;71.69;101656.97;5095617;27;49829;-70
2022/07/22 06:42:08;;;;;;;;;21.25;18.00;;;;;20.24;71.01;101691.56;5102883;27;53609;-71
2022/07/22 06:44:33;;;;;;;;;23.50;21.50;;;;;20.44;70.51;101689.72;5109145;27;49873;-69
2022/07/22 06:46:58;;;;;;;;;18.00;17.00;;;;;20.67;70.24;101691.38;5096185;27;49882;-66
2022/07/22 06:49:24;;;;;;;;;19.00;18.00;;;;;20.86;69.33;101690.38;5096052;27;49983;-66
2022/07/22 06:51:49;;;;;;;;;23.50;20.75;;;;;20.90;68.66;101680.53;5095840;27;50316;-66
2022/07/22 06:54:14;;;;;;;;;16.50;16.50;;;;;21.18;68.48;101708.81;5095857;27;49463;-69
2022/07/22 06:56:40;;;;;;;;;24.25;18.25;;;;;21.32;67.10;101698.03;5095818;27;49685;-80
2022/07/22 06:59:05;;;;;;;;;20.75;20.25;;;;;21.62;66.42;101694.22;5095968;27;49746;-70
2022/07/22 07:01:31;;;;;;;;;18.75;17.75;;;;;21.87;65.25;101711.75;5095616;27;50521;-67
2022/07/22 07:03:56;;;;;;;;;23.25;23.25;;;;;21.85;64.49;101689.50;5099121;27;50178;-67
2022/07/22 07:06:21;;;;;;;;;22.00;16.75;;;;;21.91;65.01;101715.28;5116097;27;49659;-67
2022/07/22 07:08:46;;;;;;;;;20.50;16.00;;;;;21.98;65.01;101706.28;5111092;27;49734;-73
2022/07/22 07:11:12;;;;;;;;;19.00;19.00;;;;;21.95;64.61;101693.84;5115610;27;50399;-70
2022/07/22 07:13:37;;;;;;;;;27.25;25.25;;;;;22.02;64.38;101692.00;5115941;27;49755;-72
2022/07/22 07:16:03;;;;;;;;;20.25;18.00;;;;;22.14;63.70;101681.19;5116457;27;49712;-68
2022/07/22 07:18:28;;;;;;;;;22.75;20.25;;;;;22.10;64.19;101668.75;5114796;27;49752;-71
2022/07/22 07:20:54;;;;;;;;;22.00;21.00;;;;;22.11;64.00;101648.25;5109980;27;50268;-70
2022/07/22 07:23:19;;;;;;;;;18.75;17.75;;;;;22.09;63.71;101616.16;5095162;27;49975;-68
2022/07/22 07:25:44;;;;;;;;;24.75;21.25;;;;;22.47;62.92;101658.44;5092864;27;49691;-71
2022/07/22 07:28:10;;;;;;;;;26.00;21.00;;;;;22.53;62.66;101668.19;5095763;27;50008;-73
2022/07/22 07:30:35;;;;;;;;;18.50;17.75;;;;;22.46;62.54;101642.41;5094316;27;49744;-67
2022/07/22 07:33:01;;;;;;;;;21.25;19.25;;;;;22.54;62.58;101645.84;5096561;27;49847;-82
2022/07/22 07:35:27;;;;;;;;;21.50;20.50;;;;;22.75;62.09;101676.78;5094075;27;49810;-75
2022/07/22 07:37:53;;;;;;;;;19.50;16.50;;;;;22.69;62.15;101634.94;5095771;27;49712;-76
2022/07/22 07:40:18;;;;;;;;;26.25;22.00;;;;;22.97;61.00;101659.50;5095451;27;49503;-81
2022/07/22 07:42:44;;;;;;;;;19.00;16.75;;;;;22.90;61.80;101673.03;5095419;27;49732;-71
2022/07/22 07:45:09;;;;;;;;;18.75;17.75;;;;;23.01;61.36;101671.06;5094868;27;49948;-76
2022/07/22 07:47:35;;;;;;;;;23.25;19.25;;;;;23.22;61.04;101664.44;5095327;27;49693;-69
2022/07/22 07:50:02;;;;;;;;;20.50;20.00;;;;;23.02;60.15;101638.00;5094879;27;50420;-75
2022/07/22 07:52:27;;;;;;;;;18.25;18.25;;;;;23.29;60.08;101683.06;5095009;27;49767;-69
2022/07/22 07:54:55;;;;;;;;;22.50;21.75;;;;;23.23;60.40;101685.84;5094955;27;49648;-70
2022/07/22 07:57:20;;;;;;;;;19.75;18.75;;;;;23.25;60.39;101684.00;5095216;27;49764;-72
2022/07/22 07:59:46;;;;;;;;;21.00;20.25;;;;;23.54;59.73;101686.19;5094763;27;49682;-74
2022/07/22 08:02:11;;;;;;;;;25.75;20.75;;;;;23.31;59.71;101666.97;5095094;27;49815;-74
2022/07/22 08:04:37;;;;;;;;;28.25;22.50;;;;;23.52;60.01;101679.09;5095597;27;49724;-75
2022/07/22 08:07:03;;;;;;;;;18.75;18.50;;;;;23.30;59.68;101663.41;5095709;27;49589;-71
2022/07/22 08:09:29;;;;;;;;;23.25;21.25;;;;;23.20;60.24;101672.50;5095831;27;50405;-77
2022/07/22 08:11:54;;;;;;;;;36.50;25.50;;;;;22.87;60.07;101608.78;5096430;27;49596;-80
2022/07/22 08:14:20;;;;;;;;;25.00;19.50;;;;;23.42;60.37;101671.22;5094977;27;50074;-79
2022/07/22 08:16:45;;;;;;;;;23.50;19.25;;;;;23.43;59.80;101653.34;5094974;27;49749;-76
2022/07/22 08:19:10;;;;;;;;;19.00;16.75;;;;;23.02;60.11;101644.25;5094596;27;50903;-77
2022/07/22 08:21:36;;;;;;;;;24.00;23.25;;;;;23.20;60.83;101667.16;5095052;27;49640;-72
2022/07/22 08:24:01;;;;;;;;;22.50;21.75;;;;;22.78;61.72;101669.59;5095094;27;49693;-73
2022/07/22 08:26:27;;;;;;;;;20.50;19.50;;;;;23.15;61.52;101655.63;5094887;27;49840;-72
2022/07/22 08:28:52;;;;;;;;;24.00;22.00;;;;;23.47;60.41;101662.22;5094222;27;50198;-74
2022/07/22 08:31:18;;;;;;;;;22.25;21.25;;;;;22.65;59.64;101498.50;5094426;27;49861;-73
2022/07/22 08:33:43;;;;;;;;;24.75;17.75;;;;;22.98;59.50;101547.94;5094483;27;49796;-74
2022/07/22 08:36:09;;;;;;;;;21.75;20.50;;;;;23.79;58.70;101658.97;5094764;27;49775;-74
2022/07/22 08:38:35;;;;;;;;;17.00;15.00;;;;;23.22;58.90;101584.97;5092974;27;52452;-71
2022/07/22 08:41:03;;;;;;;;;21.50;21.50;;;;;23.72;58.49;101674.28;5094514;27;49764;-72
2022/07/22 08:43:30;;;;;;;;;29.75;25.00;;;;;23.34;59.12;101600.81;5094089;27;49743;-72
2022/07/22 08:45:56;;;;;;;;;26.50;24.50;;;;;23.42;59.47;101600.66;5094619;27;49763;-72
2022/07/22 08:48:22;;;;;;;;;27.75;23.50;;;;;23.73;59.05;101638.50;5094566;27;50659;-76
2022/07/22 08:50:47;;;;;;;;;29.00;24.25;;;;;23.18;60.16;101556.47;5094858;27;49776;-83
2022/07/22 08:53:13;;;;;;;;;24.00;22.00;;;;;23.29;59.79;101577.72;5094883;27;49864;-78
2022/07/22 08:55:43;;;;;;;;;23.50;23.00;;;;;23.61;59.57;101582.47;5094774;27;49667;-80
2022/07/22 08:58:09;;;;;;;;;22.25;20.25;;;;;23.79;58.32;101549.03;5094222;27;50289;-81
2022/07/22 09:00:35;;;;;;;;;26.25;23.00;;;;;23.95;57.86;101531.72;5094149;27;49520;-80
2022/07/22 09:03:15;;;;;;;;;23.25;19.00;;;;;24.32;57.51;101558.63;5094807;27;49679;-80
2022/07/22 09:05:42;;;;;;;;;24.25;24.00;;;;;23.99;57.50;101491.38;5094845;27;49779;-82
2022/07/22 09:08:08;;;;;;;;;23.00;19.75;;;;;23.96;58.55;101518.25;5094336;27;50099;-81
2022/07/22 09:10:35;;;;;;;;;22.00;22.00;;;;;23.99;58.80;101555.72;5094524;27;49920;-78
2022/07/22 09:13:03;;;;;;;;;29.75;23.00;;;;;24.14;58.67;101562.56;5094339;27;49920;-77
2022/07/22 09:15:36;;;;;;;;;20.75;17.50;;;;;24.35;58.02;101585.38;5092894;27;49824;-81
2022/07/22 09:18:03;;;;;;;;;22.50;20.25;;;;;24.39;58.00;101554.84;5094049;27;50580;-83
2022/07/22 09:20:29;;;;;;;;;20.75;19.25;;;;;24.82;56.46;101610.19;5094486;27;49752;-81
2022/07/22 09:22:55;;;;;;;;;22.25;21.00;;;;;24.83;56.67;101652.22;5093047;27;49820;-82
2022/07/22 09:25:27;;;;;;;;;19.00;18.00;;;;;25.19;56.14;101645.09;5094897;27;49794;-81
2022/07/22 09:28:13;;;;;;;;;24.75;22.75;;;;;25.40;54.98;101647.22;5094271;27;49960;-75
2022/07/22 09:30:49;;;;;;;;;22.00;21.25;;;;;25.36;55.06;101639.25;5094889;27;49767;-75
2022/07/22 09:33:14;;;;;;;;;19.00;16.00;;;;;25.21;54.83;101597.56;5098145;27;49665;-81
2022/07/22 09:35:40;;;;;;;;;25.00;22.00;;;;;25.77;53.76;101634.56;5098048;27;49882;-75
2022/07/22 09:38:08;;;;;;;;;30.25;27.00;;;;;25.89;53.30;101631.56;5097408;27;50840;-74
2022/07/22 09:40:35;;;;;;;;;24.25;20.50;;;;;25.71;53.14;101556.78;5097654;27;49720;-80
2022/07/22 09:43:07;;;;;;;;;17.50;16.50;;;;;26.03;52.80;101572.84;5097728;27;49612;-80
2022/07/22 09:45:34;;;;;;;;;24.25;23.25;;;;;26.37;53.21;101596.03;5098796;27;49719;-77
2022/07/22 09:48:01;;;;;;;;;21.75;19.50;;;;;25.96;52.13;101545.25;5099369;27;50930;-79
2022/07/22 09:50:28;;;;;;;;;20.25;17.00;;;;;26.16;52.68;101605.66;5099370;27;49752;-83
2022/07/22 09:52:56;;;;;;;;;19.75;16.00;;;;;26.28;52.97;101602.56;5097845;27;49988;-81
2022/07/22 09:55:23;;;;;;;;;20.25;20.00;;;;;26.44;52.60;101603.00;5097955;27;49775;-80
2022/07/22 09:57:50;;;;;;;;;21.50;21.00;;;;;26.71;52.17;101642.50;5096696;27;49921;-83
2022/07/22 10:00:19;;;;;;;;;22.25;21.00;;;;;26.60;51.76;101603.38;5096763;27;49790;-75
2022/07/22 10:02:53;;;;;;;;;21.50;21.00;;;;;26.22;52.11;101536.34;5096880;27;50030;-77
2022/07/22 10:05:22;;;;;;;;;22.50;21.00;;;;;25.77;52.37;101529.69;5097103;27;49671;-75
2022/07/22 10:07:48;;;;;;;;;26.25;24.50;;;;;26.29;51.74;101590.00;5096942;27;50480;-73
2022/07/22 10:10:20;;;;;;;;;27.75;23.50;;;;;26.21;52.88;101609.94;5096597;27;49763;-75
2022/07/22 10:12:48;;;;;;;;;27.75;26.00;;;;;26.02;53.76;101613.25;5097074;27;49716;-76
2022/07/22 10:15:13;;;;;;;;;26.00;23.00;;;;;25.87;53.73;101612.78;5096846;27;49533;-77
2022/07/22 10:17:42;;;;;;;;;18.75;17.75;;;;;25.68;54.24;101615.09;5096649;27;50014;-79
2022/07/22 10:20:09;;;;;;;;;22.00;22.00;;;;;25.64;54.19;101602.63;5096519;27;49883;-78
2022/07/22 10:22:43;;;;;;;;;23.00;21.50;;;;;25.69;53.81;101595.34;5096650;27;49661;-79
2022/07/22 10:25:11;;;;;;;;;25.00;22.00;;;;;25.68;54.68;101588.19;5096605;27;49701;-76
2022/07/22 10:27:56;;;;;;;;;27.50;22.00;;;;;25.60;54.55;101595.59;5096249;27;50706;-77
2022/07/22 10:30:29;;;;;;;;;23.50;23.00;;;;;25.48;54.66;101601.31;5095972;27;49760;-78
2022/07/22 10:33:15;;;;;;;;;25.25;23.25;;;;;25.32;55.04;101587.41;5096988;27;49561;-81
2022/07/22 10:35:43;;;;;;;;;19.00;17.25;;;;;25.22;56.15;101582.31;5096690;27;49720;-73
2022/07/22 10:38:11;;;;;;;;;22.50;21.25;;;;;25.04;57.39;101594.44;5095919;27;50646;-74
2022/07/22 10:40:53;;;;;;;;;26.50;25.25;;;;;24.83;59.97;101585.09;5094850;27;49872;-86
2022/07/22 10:43:21;;;;;;;;;25.50;22.50;;;;;24.65;60.28;101534.53;5096784;27;49651;-80
2022/07/22 10:46:06;;;;;;;;;24.25;24.25;;;;;24.72;62.24;101542.41;5097455;27;49974;-75
2022/07/22 10:48:37;;;;;;;;;32.50;27.00;;;;;24.65;62.08;101523.81;5096391;27;49778;-71
2022/07/22 10:51:09;;;;;;;;;34.00;30.25;;;;;24.58;63.31;101519.50;5097086;27;49599;-70
2022/07/22 10:53:59;;;;;;;;;33.25;30.00;;;;;24.47;69.10;101504.56;5096672;27;50025;-73
2022/07/22 10:56:31;;;;;;;;;27.75;27.50;;;;;24.41;67.89;101499.31;5093462;27;49929;-76
2022/07/22 10:59:10;;;;;;;;;29.50;28.00;;;;;24.34;64.74;101468.22;5096427;27;49693;-73
2022/07/22 11:01:38;;;;;;;;;33.00;29.75;;;;;24.35;67.67;101453.00;5095950;27;49500;-80
2022/07/22 11:04:09;;;;;;;;;29.25;27.75;;;;;24.46;67.76;101451.78;5095988;27;49741;-70
2022/07/22 11:06:35;;;;;;;;;29.50;26.50;;;;;24.51;66.38;101428.41;5095923;27;49833;-80